createdAt,value
2019-05-25T00:01:33.774Z,4.55
2019-05-25T00:04:03.347Z,2.87
2019-05-25T00:06:33.451Z,3.60
2019-05-25T00:09:02.969Z,4.43
2019-05-25T00:11:32.534Z,5.67
2019-05-25T00:14:02.026Z,6.70
2019-05-25T00:16:31.744Z,3.83
2019-05-25T00:19:01.235Z,3.87
2019-05-25T00:21:30.891Z,4.77
2019-05-25T00:24:11.833Z,6.47
2019-05-25T00:26:31.550Z,5.10
2019-05-25T00:29:01.043Z,3.90
2019-05-25T00:31:30.680Z,4.57
2019-05-25T00:34:00.605Z,4.33
2019-05-25T00:36:30.173Z,5.00
2019-05-25T00:38:59.768Z,4.77
2019-05-25T00:41:30.910Z,6.57
2019-05-25T00:44:00.398Z,6.20
2019-05-25T00:46:30.268Z,5.73
2019-05-25T00:48:59.836Z,4.33
2019-05-25T00:51:29.694Z,6.10
2019-05-25T00:53:59.184Z,5.83
2019-05-25T00:56:28.672Z,5.80
2019-05-25T00:58:58.636Z,8.53
2019-05-25T01:01:28.199Z,3.87
2019-05-25T01:03:57.687Z,5.47
2019-05-25T01:06:27.238Z,6.77
2019-05-25T01:08:56.788Z,5.87
2019-05-25T01:11:26.353Z,5.37
2019-05-25T01:13:55.917Z,3.77
2019-05-25T01:16:25.391Z,4.67
2019-05-25T01:18:54.953Z,5.83
2019-05-25T01:21:24.554Z,5.77
2019-05-25T01:23:54.058Z,5.53
2019-05-25T01:26:23.551Z,5.03
2019-05-25T01:28:53.066Z,4.20
2019-05-25T01:31:22.909Z,5.20
2019-05-25T01:33:52.478Z,5.80
2019-05-25T01:36:22.436Z,5.70
2019-05-25T01:38:52.334Z,5.57
2019-05-25T01:41:21.891Z,8.97
2019-05-25T01:43:53.311Z,6.60
2019-05-25T01:46:22.786Z,6.87
2019-05-25T01:48:52.350Z,8.17
2019-05-25T01:51:21.920Z,10.97
2019-05-25T01:53:51.376Z,6.07
2019-05-25T01:56:21.099Z,8.03
2019-05-25T01:58:50.960Z,7.23
2019-05-25T02:01:20.520Z,8.00
2019-05-25T02:03:50.085Z,9.00
2019-05-25T02:06:19.664Z,9.17
2019-05-25T02:08:49.188Z,9.10
2019-05-25T02:11:19.130Z,7.70
2019-05-25T02:13:49.213Z,9.57
2019-05-25T02:16:18.851Z,8.17
2019-05-25T02:18:48.741Z,9.03
2019-05-25T02:21:18.793Z,7.93
2019-05-25T02:23:48.328Z,8.40
2019-05-25T02:26:17.813Z,9.90
2019-05-25T02:28:47.363Z,8.83
2019-05-25T02:31:17.015Z,8.93
2019-05-25T02:33:46.533Z,11.77
2019-05-25T02:36:16.091Z,9.30
2019-05-25T02:38:45.582Z,10.13
2019-05-25T02:41:16.097Z,8.97
2019-05-25T02:43:45.610Z,11.87
2019-05-25T02:46:15.479Z,9.33
2019-05-25T02:48:45.135Z,12.83
2019-05-25T02:51:15.394Z,10.27
2019-05-25T02:53:45.217Z,8.80
2019-05-25T02:56:14.783Z,10.37
2019-05-25T02:58:44.354Z,12.17
2019-05-25T03:01:13.942Z,12.03
2019-05-25T03:03:43.573Z,12.53
2019-05-25T03:06:13.921Z,10.43
2019-05-25T03:08:44.142Z,11.77
2019-05-25T03:11:13.641Z,12.20
2019-05-25T03:13:44.112Z,12.63
2019-05-25T03:16:14.134Z,12.17
2019-05-25T03:18:43.693Z,11.57
2019-05-25T03:21:13.562Z,10.90
2019-05-25T03:23:43.381Z,11.63
2019-05-25T03:26:13.792Z,11.63
2019-05-25T03:28:43.382Z,10.47
2019-05-25T03:31:12.880Z,12.67
2019-05-25T03:33:42.473Z,15.00
2019-05-25T03:36:12.244Z,11.57
2019-05-25T03:38:42.132Z,10.30
2019-05-25T03:41:11.680Z,11.27
2019-05-25T03:43:41.334Z,12.93
2019-05-25T03:46:11.251Z,11.23
2019-05-25T03:48:41.271Z,12.43
2019-05-25T03:51:10.874Z,11.67
2019-05-25T03:53:40.728Z,13.03
2019-05-25T03:56:10.657Z,12.30
2019-05-25T03:58:41.338Z,12.77
2019-05-25T04:01:10.947Z,12.07
2019-05-25T04:03:40.703Z,15.10
2019-05-25T04:06:10.277Z,15.07
2019-05-25T04:08:39.931Z,14.43
2019-05-25T04:11:09.572Z,14.33
2019-05-25T04:13:39.448Z,15.67
2019-05-25T04:16:09.109Z,15.17
2019-05-25T04:18:39.661Z,13.17
2019-05-25T04:21:09.578Z,12.70
2019-05-25T04:23:39.087Z,12.50
2019-05-25T04:26:21.320Z,13.93
2019-05-25T04:28:40.258Z,12.33
2019-05-25T04:31:09.977Z,12.77
2019-05-25T04:33:39.510Z,11.20
2019-05-25T04:36:09.115Z,11.03
2019-05-25T04:38:39.308Z,13.07
2019-05-25T04:41:09.500Z,12.10
2019-05-25T04:43:40.295Z,11.90
2019-05-25T04:46:10.172Z,10.93
2019-05-25T04:48:40.078Z,10.73
2019-05-25T04:51:09.580Z,11.13
2019-05-25T04:53:39.081Z,11.40
2019-05-25T04:56:09.077Z,11.80
2019-05-25T04:58:38.630Z,10.40
2019-05-25T05:01:08.185Z,9.93
2019-05-25T05:03:37.688Z,11.53
2019-05-25T05:06:07.713Z,11.30
2019-05-25T05:08:37.210Z,11.40
2019-05-25T05:11:06.792Z,12.53
2019-05-25T05:13:36.646Z,10.30
2019-05-25T05:16:06.226Z,10.37
2019-05-25T05:18:35.739Z,10.43
2019-05-25T05:21:05.420Z,10.30
2019-05-25T05:23:35.000Z,11.40
2019-05-25T05:26:04.540Z,10.23
2019-05-25T05:28:34.115Z,13.57
2019-05-25T05:31:04.030Z,12.20
2019-05-25T05:33:33.556Z,12.43
2019-05-25T05:36:04.093Z,9.53
2019-05-25T05:38:34.407Z,11.40
2019-05-25T05:41:04.515Z,10.90
2019-05-25T05:43:35.724Z,8.93
2019-05-25T05:46:06.401Z,10.60
2019-05-25T05:48:37.444Z,9.70
2019-05-25T05:51:08.025Z,9.60
2019-05-25T05:53:39.127Z,11.00
2019-05-25T05:56:08.777Z,10.00
2019-05-25T05:58:38.336Z,8.57
2019-05-25T06:01:08.897Z,11.00
2019-05-25T06:03:38.378Z,11.40
2019-05-25T06:06:08.035Z,7.67
2019-05-25T06:08:37.516Z,7.67
2019-05-25T06:11:07.023Z,9.98
2019-05-25T06:13:36.832Z,9.48
2019-05-25T06:16:06.351Z,8.50
2019-05-25T06:18:36.353Z,9.35
2019-05-25T06:21:05.943Z,10.00
2019-05-25T06:23:35.508Z,6.83
2019-05-25T06:26:05.046Z,8.03
2019-05-25T06:28:34.551Z,10.03
2019-05-25T06:31:04.422Z,7.10
2019-05-25T06:33:33.920Z,8.53
2019-05-25T06:36:03.496Z,10.13
2019-05-25T06:38:33.058Z,8.98
2019-05-25T06:41:02.865Z,10.40
2019-05-25T06:43:32.668Z,8.90
2019-05-25T06:46:02.174Z,9.88
2019-05-25T06:48:32.074Z,9.15
2019-05-25T06:51:02.663Z,8.58
2019-05-25T06:53:32.244Z,12.58
2019-05-25T06:56:02.592Z,6.20
2019-05-25T06:58:32.099Z,9.43
2019-05-25T07:01:01.998Z,10.28
2019-05-25T07:03:31.572Z,8.48
2019-05-25T07:06:01.457Z,7.70
2019-05-25T07:08:31.038Z,8.50
2019-05-25T07:11:00.726Z,6.97
2019-05-25T07:13:30.511Z,9.85
2019-05-25T07:16:01.481Z,9.60
2019-05-25T07:18:31.045Z,8.55
2019-05-25T07:21:00.725Z,8.28
2019-05-25T07:23:30.438Z,10.85
2019-05-25T07:26:00.033Z,10.30
2019-05-25T07:28:30.013Z,10.18
2019-05-25T07:30:59.538Z,12.58
2019-05-25T07:33:29.061Z,13.13
2019-05-25T07:35:58.851Z,13.03
2019-05-25T07:38:28.758Z,13.62
2019-05-25T07:40:58.789Z,14.20
2019-05-25T07:43:28.372Z,12.65
2019-05-25T07:45:58.139Z,11.38
2019-05-25T07:48:27.675Z,16.32
2019-05-25T07:50:57.229Z,13.20
2019-05-25T07:53:26.729Z,14.03
2019-05-25T07:55:56.362Z,15.05
2019-05-25T07:58:26.345Z,20.92
2019-05-25T08:01:00.138Z,24.82
2019-05-25T08:03:29.695Z,25.55
2019-05-25T08:05:59.221Z,23.55
2019-05-25T08:08:29.416Z,25.40
2019-05-25T08:10:58.975Z,23.85
2019-05-25T08:13:28.503Z,22.32
2019-05-25T08:15:58.025Z,24.23
2019-05-25T08:18:27.655Z,23.38
2019-05-25T08:20:57.395Z,24.05
2019-05-25T08:23:28.544Z,24.12
2019-05-25T08:25:58.119Z,23.40
2019-05-25T08:28:32.625Z,22.25
2019-05-25T08:31:01.448Z,21.60
2019-05-25T08:33:30.927Z,22.05
2019-05-25T08:36:00.863Z,23.22
2019-05-25T08:38:30.381Z,20.85
2019-05-25T08:41:00.833Z,22.85
2019-05-25T08:43:30.394Z,22.15
2019-05-25T08:46:00.233Z,23.62
2019-05-25T08:48:29.821Z,21.23
2019-05-25T08:50:59.908Z,22.80
2019-05-25T08:53:40.545Z,21.42
2019-05-25T08:56:00.829Z,22.30
2019-05-25T08:58:30.329Z,22.05
2019-05-25T09:01:00.626Z,22.25
2019-05-25T09:03:30.197Z,22.22
2019-05-25T09:05:59.757Z,23.00
2019-05-25T09:08:29.227Z,21.95
2019-05-25T09:10:59.085Z,20.68
2019-05-25T09:13:28.599Z,22.55
2019-05-25T09:15:58.414Z,21.33
2019-05-25T09:18:28.199Z,18.60
2019-05-25T09:20:57.695Z,20.75
2019-05-25T09:24:15.400Z,18.35
2019-05-25T09:26:47.982Z,17.80
2019-05-25T09:29:17.473Z,17.67
2019-05-25T09:31:47.099Z,16.80
2019-05-25T09:34:23.360Z,17.87
2019-05-25T09:36:56.861Z,16.77
2019-05-25T09:39:26.517Z,17.40
2019-05-25T09:41:56.272Z,18.85
2019-05-25T09:44:25.838Z,17.75
2019-05-25T09:46:55.429Z,16.77
2019-05-25T09:49:25.371Z,17.23
2019-05-25T09:51:54.951Z,16.52
2019-05-25T09:54:24.532Z,15.60
2019-05-25T09:56:54.097Z,16.07
2019-05-25T09:59:23.595Z,15.88
2019-05-25T10:01:54.324Z,14.15
2019-05-25T10:04:23.889Z,13.15
2019-05-25T10:06:53.498Z,13.10
2019-05-25T10:09:23.156Z,13.43
2019-05-25T10:11:52.973Z,12.30
2019-05-25T10:14:22.648Z,13.60
2019-05-25T10:16:52.587Z,11.30
2019-05-25T10:19:22.183Z,10.90
2019-05-25T10:21:51.773Z,12.95
2019-05-25T10:24:21.549Z,10.08
2019-05-25T10:26:51.233Z,11.28
2019-05-25T10:29:36.051Z,9.80
2019-05-25T10:31:53.001Z,8.93
2019-05-25T10:34:23.350Z,8.65
2019-05-25T10:36:53.378Z,9.73
2019-05-25T10:39:22.874Z,8.55
2019-05-25T10:42:00.903Z,9.40
2019-05-25T10:45:31.404Z,8.50
2019-05-25T10:48:12.114Z,9.73
2019-05-25T10:50:41.655Z,9.35
2019-05-25T10:53:11.417Z,7.97
2019-05-25T10:55:41.013Z,6.90
2019-05-25T10:58:10.560Z,7.75
2019-05-25T11:00:40.111Z,6.95
2019-05-25T11:03:09.606Z,7.50
2019-05-25T11:05:39.528Z,6.95
2019-05-25T11:08:10.024Z,7.40
2019-05-25T11:10:39.941Z,8.58
2019-05-25T11:13:09.442Z,5.78
2019-05-25T11:15:38.896Z,6.00
2019-05-25T11:18:08.692Z,7.20
2019-05-25T11:20:38.501Z,7.10
2019-05-25T11:23:08.091Z,6.03
2019-05-25T11:25:38.009Z,6.50
2019-05-25T11:28:08.528Z,6.25
2019-05-25T11:30:38.169Z,7.08
2019-05-25T11:33:08.140Z,6.53
2019-05-25T11:35:37.641Z,7.03
2019-05-25T11:38:07.188Z,7.72
2019-05-25T11:40:37.103Z,8.45
2019-05-25T11:43:06.658Z,8.95
2019-05-25T11:45:36.223Z,8.78
2019-05-25T11:48:06.580Z,10.55
2019-05-25T11:50:36.088Z,8.63
2019-05-25T11:53:06.189Z,7.33
2019-05-25T11:55:36.964Z,8.75
2019-05-25T11:58:06.800Z,6.85
2019-05-25T12:00:36.773Z,6.20
2019-05-25T12:03:06.665Z,7.42
2019-05-25T12:05:36.187Z,7.70
2019-05-25T12:08:05.746Z,5.65
2019-05-25T12:10:35.290Z,5.62
2019-05-25T12:13:04.847Z,5.40
2019-05-25T12:15:35.015Z,6.00
2019-05-25T12:18:04.502Z,5.97
2019-05-25T12:20:34.140Z,6.12
2019-05-25T12:23:04.221Z,5.10
2019-05-25T12:25:34.202Z,6.83
2019-05-25T12:28:04.152Z,7.95
2019-05-25T12:30:40.751Z,6.87
2019-05-25T12:33:04.933Z,6.80
2019-05-25T12:35:34.432Z,5.03
2019-05-25T12:38:04.219Z,4.22
2019-05-25T12:40:33.796Z,4.60
2019-05-25T12:43:03.354Z,4.92
2019-05-25T12:45:32.937Z,4.42
2019-05-25T12:48:03.479Z,6.08
2019-05-25T12:50:33.062Z,4.25
2019-05-25T12:53:02.856Z,4.95
2019-05-25T12:55:32.772Z,5.12
2019-05-25T12:58:02.658Z,8.23
2019-05-25T13:00:32.151Z,6.25
2019-05-25T13:03:01.941Z,4.75
2019-05-25T13:05:34.535Z,6.30
2019-05-25T13:08:04.043Z,3.83
2019-05-25T13:10:33.606Z,4.08
2019-05-25T13:13:03.434Z,6.45
2019-05-25T13:15:33.373Z,6.50
2019-05-25T13:18:03.251Z,4.90
2019-05-25T13:20:32.815Z,4.90
2019-05-25T13:23:05.440Z,4.55
2019-05-25T13:25:33.953Z,5.47
2019-05-25T13:28:03.505Z,4.67
2019-05-25T13:30:33.083Z,3.75
2019-05-25T13:33:02.614Z,5.75
2019-05-25T13:35:32.092Z,3.60
2019-05-25T13:38:03.143Z,6.30
2019-05-25T13:40:33.067Z,5.25
2019-05-25T13:43:02.640Z,7.40
2019-05-25T13:45:32.203Z,3.10
2019-05-25T13:48:02.708Z,5.62
2019-05-25T13:50:32.666Z,4.67
2019-05-25T13:53:02.543Z,5.00
2019-05-25T13:55:33.184Z,4.65
2019-05-25T13:58:02.830Z,4.58
2019-05-25T14:00:32.324Z,5.20
2019-05-25T14:03:02.351Z,4.25
2019-05-25T14:05:32.051Z,6.30
2019-05-25T14:08:01.874Z,4.00
2019-05-25T14:10:31.416Z,4.65
2019-05-25T14:13:01.039Z,4.95
2019-05-25T14:15:31.113Z,5.53
2019-05-25T14:18:00.665Z,2.70
2019-05-25T14:20:30.321Z,4.05
2019-05-25T14:22:59.975Z,2.52
2019-05-25T14:25:29.460Z,3.40
2019-05-25T14:27:59.338Z,3.22
2019-05-25T14:30:29.167Z,2.35
2019-05-25T14:32:58.723Z,3.33
2019-05-25T14:35:28.680Z,3.83
2019-05-25T14:37:58.275Z,3.92
2019-05-25T14:40:28.190Z,3.37
2019-05-25T14:42:57.739Z,7.62
2019-05-25T14:45:27.233Z,4.02
2019-05-25T14:47:56.741Z,5.42
2019-05-25T14:50:26.891Z,6.70
2019-05-25T14:52:56.376Z,4.17
2019-05-25T14:55:26.905Z,5.33
2019-05-25T14:57:56.434Z,3.98
2019-05-25T15:00:26.112Z,2.87
2019-05-25T15:02:55.730Z,6.08
2019-05-25T15:05:25.622Z,4.75
2019-05-25T15:07:55.248Z,10.28
2019-05-25T15:10:27.006Z,5.83
2019-05-25T15:12:56.904Z,20.37
2019-05-25T15:15:26.473Z,6.87
2019-05-25T15:17:56.046Z,3.80
2019-05-25T15:20:25.821Z,3.92
2019-05-25T15:22:55.365Z,3.45
2019-05-25T15:25:25.439Z,2.52
2019-05-25T15:27:55.091Z,3.65
2019-05-25T15:30:24.642Z,8.18
2019-05-25T15:32:54.212Z,4.00
2019-05-25T15:35:23.818Z,3.27
2019-05-25T15:37:53.391Z,3.80
2019-05-25T15:40:22.942Z,3.12
2019-05-25T15:42:52.822Z,2.25
2019-05-25T15:45:22.908Z,6.10
2019-05-25T15:47:52.586Z,2.95
2019-05-25T15:50:22.431Z,4.62
2019-05-25T15:52:52.258Z,2.35
2019-05-25T15:55:21.730Z,4.05
2019-05-25T15:57:51.530Z,3.27
2019-05-25T16:00:22.527Z,5.58
2019-05-25T16:02:52.095Z,2.58
2019-05-25T16:05:22.436Z,2.45
2019-05-25T16:07:52.234Z,4.03
2019-05-25T16:10:21.805Z,2.62
2019-05-25T16:12:51.271Z,2.77
2019-05-25T16:15:27.330Z,1.65
2019-05-25T16:17:57.940Z,2.72
2019-05-25T16:20:27.643Z,4.90
2019-05-25T16:22:57.460Z,2.15
2019-05-25T16:25:27.694Z,4.80
2019-05-25T16:27:57.767Z,4.60
2019-05-25T16:30:31.231Z,4.47
2019-05-25T16:33:11.513Z,2.33
2019-05-25T16:35:29.787Z,4.15
2019-05-25T16:37:59.364Z,4.72
2019-05-25T16:40:29.164Z,4.87
2019-05-25T16:42:58.626Z,2.67
2019-05-25T16:45:28.450Z,2.27
2019-05-25T16:47:58.079Z,4.55
2019-05-25T16:50:27.548Z,2.52
2019-05-25T16:52:57.082Z,4.60
2019-05-25T16:55:26.895Z,4.45
2019-05-25T16:57:56.359Z,3.67
2019-05-25T17:00:26.947Z,3.00
2019-05-25T17:02:56.982Z,4.08
2019-05-25T17:05:26.960Z,3.60
2019-05-25T17:07:58.170Z,3.67
2019-05-25T17:10:28.175Z,3.17
2019-05-25T17:12:57.676Z,4.47
2019-05-25T17:15:27.154Z,3.98
2019-05-25T17:17:57.038Z,3.22
2019-05-25T17:20:26.507Z,4.90
2019-05-25T17:22:56.009Z,5.40
2019-05-25T17:25:26.354Z,6.53
2019-05-25T17:27:55.803Z,5.00
2019-05-25T17:30:44.497Z,4.12
2019-05-25T17:33:14.277Z,8.83
2019-05-25T17:35:44.386Z,4.12
2019-05-25T17:38:13.881Z,6.00
2019-05-25T17:40:43.563Z,3.85
2019-05-25T17:43:13.119Z,4.33
2019-05-25T17:45:42.695Z,3.95
2019-05-25T17:48:12.324Z,3.45
2019-05-25T17:50:41.964Z,3.72
2019-05-25T17:53:11.743Z,4.10
2019-05-25T17:55:41.318Z,4.90
2019-05-25T17:58:10.783Z,6.25
2019-05-25T18:00:47.447Z,5.03
2019-05-25T18:03:17.604Z,2.75
2019-05-25T18:05:47.312Z,3.30
2019-05-25T18:08:17.184Z,2.40
2019-05-25T18:10:53.560Z,3.98
2019-05-25T18:13:18.667Z,4.85
2019-05-25T18:15:48.222Z,3.92
2019-05-25T18:18:17.743Z,5.55
2019-05-25T18:20:47.656Z,4.60
2019-05-25T18:23:17.475Z,2.47
2019-05-25T18:25:47.300Z,5.15
2019-05-25T18:28:16.837Z,5.05
2019-05-25T18:30:46.706Z,3.62
2019-05-25T18:33:16.523Z,3.17
2019-05-25T18:35:46.016Z,4.28
2019-05-25T18:38:15.469Z,4.72
2019-05-25T18:40:44.946Z,5.83
2019-05-25T18:43:14.864Z,6.33
2019-05-25T18:45:44.425Z,4.00
2019-05-25T18:48:13.949Z,4.35
2019-05-25T18:50:43.636Z,2.83
2019-05-25T18:53:13.096Z,6.33
2019-05-25T18:55:42.993Z,4.17
2019-05-25T18:58:12.626Z,4.97
2019-05-25T19:00:42.531Z,3.08
2019-05-25T19:03:12.357Z,3.92
2019-05-25T19:05:41.886Z,3.65
2019-05-25T19:08:11.364Z,6.62
2019-05-25T19:10:42.850Z,6.22
2019-05-25T19:13:12.484Z,4.22
2019-05-25T19:15:42.018Z,4.50
2019-05-25T19:18:11.824Z,5.00
2019-05-25T19:20:41.349Z,5.03
2019-05-25T19:23:11.134Z,3.40
2019-05-25T19:25:41.655Z,4.33
2019-05-25T19:28:11.489Z,4.92
2019-05-25T19:30:41.418Z,3.75
2019-05-25T19:33:11.349Z,4.17
2019-05-25T19:35:40.852Z,4.33
2019-05-25T19:38:10.402Z,3.75
2019-05-25T19:40:40.031Z,5.83
2019-05-25T19:43:09.566Z,7.62
2019-05-25T19:45:39.282Z,3.30
2019-05-25T19:48:09.154Z,5.05
2019-05-25T19:50:38.683Z,4.08
2019-05-25T19:53:08.573Z,3.92
2019-05-25T19:55:38.555Z,5.33
2019-05-25T19:58:08.129Z,3.62
2019-05-25T20:00:37.672Z,4.10
2019-05-25T20:03:07.594Z,2.80
2019-05-25T20:05:37.178Z,3.72
2019-05-25T20:08:06.711Z,5.35
2019-05-25T20:10:36.318Z,7.50
2019-05-25T20:13:05.969Z,4.75
2019-05-25T20:15:35.500Z,8.65
2019-05-25T20:18:05.140Z,4.83
2019-05-25T20:20:34.596Z,4.58
2019-05-25T20:23:04.444Z,4.25
2019-05-25T20:25:33.907Z,4.20
2019-05-25T20:28:03.379Z,5.47
2019-05-25T20:30:32.926Z,4.78
2019-05-25T20:33:02.463Z,6.28
2019-05-25T20:35:33.629Z,7.05
2019-05-25T20:38:03.554Z,4.20
2019-05-25T20:40:33.579Z,6.10
2019-05-25T20:43:03.084Z,7.10
2019-05-25T20:45:32.989Z,5.65
2019-05-25T20:48:02.485Z,7.95
2019-05-25T20:50:32.056Z,7.72
2019-05-25T20:53:02.130Z,6.97
2019-05-25T20:55:31.599Z,6.78
2019-05-25T20:58:01.470Z,10.85
2019-05-25T21:00:31.689Z,7.55
2019-05-25T21:03:06.438Z,6.15
2019-05-25T21:05:48.948Z,6.87
2019-05-25T21:08:04.364Z,5.95
2019-05-25T21:10:34.052Z,9.05
2019-05-25T21:13:03.921Z,5.90
2019-05-25T21:15:33.733Z,6.45
2019-05-25T21:18:03.328Z,7.92
2019-05-25T21:20:32.919Z,5.83
2019-05-25T21:23:02.783Z,6.42
2019-05-25T21:25:32.464Z,6.85
2019-05-25T21:28:01.953Z,5.95
2019-05-25T21:30:31.443Z,7.47
2019-05-25T21:33:01.586Z,5.70
2019-05-25T21:35:31.750Z,9.50
2019-05-25T21:38:01.216Z,6.97
2019-05-25T21:40:30.715Z,6.03
2019-05-25T21:43:00.272Z,9.28
2019-05-25T21:45:30.164Z,6.12
2019-05-25T21:47:59.949Z,6.30
2019-05-25T21:50:29.900Z,7.90
2019-05-25T21:52:59.632Z,7.20
2019-05-25T21:55:29.172Z,15.72
2019-05-25T21:57:58.924Z,7.50
2019-05-25T22:00:30.331Z,7.72
2019-05-25T22:03:01.564Z,7.03
2019-05-25T22:05:31.195Z,8.80
2019-05-25T22:08:00.727Z,8.25
2019-05-25T22:10:30.315Z,6.73
2019-05-25T22:12:59.800Z,6.73
2019-05-25T22:15:29.538Z,7.73
2019-05-25T22:17:58.995Z,6.07
2019-05-25T22:20:28.572Z,6.77
2019-05-25T22:22:58.019Z,7.80
2019-05-25T22:25:27.624Z,7.00
2019-05-25T22:27:58.039Z,6.30
2019-05-25T22:30:28.071Z,8.37
2019-05-25T22:32:57.557Z,7.77
2019-05-25T22:35:27.103Z,7.08
2019-05-25T22:37:56.586Z,8.30
2019-05-25T22:40:26.741Z,7.03
2019-05-25T22:42:56.321Z,9.23
2019-05-25T22:45:25.883Z,6.87
2019-05-25T22:47:55.590Z,9.10
2019-05-25T22:50:25.127Z,7.57
2019-05-25T22:52:54.629Z,8.23
2019-05-25T22:55:24.855Z,7.80
2019-05-25T22:57:54.411Z,7.77
2019-05-25T23:00:24.320Z,8.70
2019-05-25T23:02:53.962Z,7.50
2019-05-25T23:05:23.654Z,8.00
2019-05-25T23:07:53.194Z,8.37
2019-05-25T23:10:23.072Z,7.73
2019-05-25T23:12:52.734Z,8.00
2019-05-25T23:15:22.771Z,7.43
2019-05-25T23:17:52.591Z,10.63
2019-05-25T23:20:22.082Z,9.63
2019-05-25T23:22:51.563Z,9.97
2019-05-25T23:25:21.199Z,9.17
2019-05-25T23:27:50.806Z,9.67
2019-05-25T23:30:20.658Z,9.27
2019-05-25T23:32:51.018Z,9.27
2019-05-25T23:35:21.136Z,12.63
2019-05-25T23:37:51.015Z,8.43
2019-05-25T23:40:20.591Z,10.27
2019-05-25T23:42:51.056Z,9.47
2019-05-25T23:45:20.841Z,10.47
2019-05-25T23:47:50.323Z,10.27
2019-05-25T23:50:19.812Z,10.37
2019-05-25T23:52:50.141Z,9.20
2019-05-25T23:55:20.604Z,10.03
2019-05-25T23:57:50.544Z,9.80
